createdAt,value
2022-08-20T00:02:24.753Z,99837.94
2022-08-20T00:07:25.996Z,99829.52
2022-08-20T00:12:27.283Z,99828.04
2022-08-20T00:17:35.841Z,99815.93
2022-08-20T00:22:37.497Z,99812.94
2022-08-20T00:27:38.609Z,99810.33
2022-08-20T00:33:01.268Z,99801.64
2022-08-20T00:38:03.112Z,99790.48
2022-08-20T00:43:23.164Z,99779.71
2022-08-20T00:48:28.123Z,99766.63
2022-08-20T00:53:30.145Z,99765.00
2022-08-20T00:58:32.135Z,99761.90
2022-08-20T01:03:33.834Z,99749.63
2022-08-20T01:08:34.923Z,99734.18
2022-08-20T01:13:37.977Z,99723.30
2022-08-20T01:18:39.684Z,99708.40
2022-08-20T01:24:05.794Z,99711.02
2022-08-20T01:29:12.652Z,99721.30
2022-08-20T01:34:18.966Z,99705.92
2022-08-20T01:39:24.412Z,99718.96
2022-08-20T01:44:26.115Z,99747.29
2022-08-20T01:49:34.492Z,99771.98
2022-08-20T01:54:35.687Z,99790.41
2022-08-20T01:59:37.413Z,99817.95
2022-08-20T02:04:40.189Z,99834.55
2022-08-20T02:09:42.001Z,99838.73
2022-08-20T02:14:46.038Z,99827.61
2022-08-20T02:19:52.575Z,99824.64
2022-08-20T02:24:53.764Z,99832.23
2022-08-20T02:29:54.847Z,99830.05
2022-08-20T02:34:56.209Z,99829.22
2022-08-20T02:39:58.045Z,99832.52
2022-08-20T02:44:59.406Z,99842.02
2022-08-20T02:50:00.558Z,99834.80
2022-08-20T02:55:01.731Z,99836.86
2022-08-20T03:00:06.721Z,99838.27
2022-08-20T03:05:08.898Z,99841.13
2022-08-20T03:10:11.783Z,99845.47
2022-08-20T03:15:17.833Z,99845.52
2022-08-20T03:20:23.768Z,99844.27
2022-08-20T03:25:25.691Z,99844.52
2022-08-20T03:30:28.128Z,99848.65
2022-08-20T03:35:31.222Z,99841.73
2022-08-20T03:40:33.787Z,99835.99
2022-08-20T03:45:37.371Z,99832.21
2022-08-20T03:50:41.640Z,99837.64
2022-08-20T03:55:54.497Z,99836.64
2022-08-20T04:00:57.131Z,99829.08
2022-08-20T04:05:58.813Z,99823.77
2022-08-20T04:10:59.995Z,99820.27
2022-08-20T04:16:07.970Z,99815.01
2022-08-20T04:21:13.012Z,99812.11
2022-08-20T04:26:15.462Z,99802.35
2022-08-20T04:31:18.171Z,99795.21
2022-08-20T04:36:21.365Z,99795.98
2022-08-20T04:41:24.182Z,99794.04
2022-08-20T04:46:27.812Z,99800.44
2022-08-20T04:51:29.419Z,99791.91
2022-08-20T04:56:38.294Z,99795.73
2022-08-20T05:01:39.482Z,99790.97
2022-08-20T05:06:40.896Z,99801.59
2022-08-20T05:11:42.068Z,99807.89
2022-08-20T05:16:43.163Z,99793.59
2022-08-20T05:21:44.295Z,99769.47
2022-08-20T05:26:45.888Z,99769.05
2022-08-20T05:31:47.053Z,99759.60
2022-08-20T05:36:50.496Z,99779.09
2022-08-20T05:41:52.059Z,99776.40
2022-08-20T05:46:53.210Z,99783.67
2022-08-20T05:51:54.568Z,99789.94
2022-08-20T05:56:56.672Z,99805.93
2022-08-20T06:01:57.748Z,99813.47
2022-08-20T06:07:05.559Z,99827.36
2022-08-20T06:12:08.461Z,99821.63
2022-08-20T06:17:13.313Z,99809.21
2022-08-20T06:22:18.779Z,99790.19
2022-08-20T06:27:27.279Z,99793.61
2022-08-20T06:32:31.665Z,99793.91
2022-08-20T06:37:36.028Z,99802.98
2022-08-20T06:42:47.871Z,99804.33
2022-08-20T06:47:52.015Z,99811.86
2022-08-20T06:52:53.486Z,99812.88
2022-08-20T06:58:04.613Z,99808.62
2022-08-20T07:03:06.208Z,99819.64
2022-08-20T07:08:13.780Z,99823.02
2022-08-20T07:13:15.558Z,99825.83
2022-08-20T07:18:17.220Z,99833.64
2022-08-20T07:23:30.872Z,99841.51
2022-08-20T07:28:34.462Z,99848.08
2022-08-20T07:33:38.642Z,99844.33
2022-08-20T07:38:40.913Z,99840.27
2022-08-20T07:43:46.365Z,99840.44
2022-08-20T07:48:49.307Z,99836.41
2022-08-20T07:53:51.980Z,99839.40
2022-08-20T07:58:55.658Z,99838.05
2022-08-20T08:03:58.940Z,99837.87
2022-08-20T08:09:05.005Z,99843.45
2022-08-20T08:14:08.747Z,99843.81
2022-08-20T08:19:11.137Z,99838.23
2022-08-20T08:24:19.368Z,99839.44
2022-08-20T08:29:22.268Z,99839.83
2022-08-20T08:34:24.617Z,99841.24
2022-08-20T08:39:25.730Z,99847.64
2022-08-20T08:44:40.715Z,99847.27
2022-08-20T08:49:45.491Z,99839.13
2022-08-20T08:54:49.509Z,99837.19
2022-08-20T09:00:04.867Z,99833.99
2022-08-20T09:05:17.049Z,99829.23
2022-08-20T09:10:23.241Z,99827.61
2022-08-20T09:15:25.102Z,99826.73
2022-08-20T09:20:27.262Z,99817.19
2022-08-20T09:25:28.663Z,99820.34
2022-08-20T09:30:29.785Z,99823.59
2022-08-20T09:35:31.049Z,99828.66
2022-08-20T09:40:32.798Z,99827.11
2022-08-20T09:45:34.902Z,99823.16
2022-08-20T09:50:38.904Z,99816.91
2022-08-20T09:55:43.285Z,99814.52
2022-08-20T10:00:44.715Z,99812.54
2022-08-20T10:05:46.223Z,99811.19
2022-08-20T10:10:47.319Z,99816.97
2022-08-20T10:15:48.426Z,99819.53
2022-08-20T10:20:49.615Z,99817.99
2022-08-20T10:25:50.849Z,99824.70
2022-08-20T10:30:51.923Z,99829.67
2022-08-20T10:35:55.683Z,99825.01
2022-08-20T10:41:01.141Z,99822.63
2022-08-20T10:46:02.525Z,99829.98
2022-08-20T10:51:04.239Z,99830.91
2022-08-20T10:56:06.710Z,99830.91
2022-08-20T11:01:08.384Z,99826.23
2022-08-20T11:06:09.859Z,99828.27
2022-08-20T11:11:11.140Z,99823.44
2022-08-20T11:16:13.428Z,99815.92
2022-08-20T11:21:14.943Z,99811.00
2022-08-20T11:26:21.432Z,99807.95
2022-08-20T11:31:22.505Z,99806.24
2022-08-20T11:36:25.720Z,99806.11
2022-08-20T11:41:26.799Z,99801.04
2022-08-20T11:46:28.783Z,99797.37
2022-08-20T11:51:30.259Z,99796.19
2022-08-20T11:56:38.893Z,99794.82
2022-08-20T12:02:03.058Z,99791.23
2022-08-20T12:07:10.136Z,99796.08
2022-08-20T12:12:11.601Z,99795.75
2022-08-20T12:17:20.484Z,99795.39
2022-08-20T12:22:25.343Z,99803.72
2022-08-20T12:27:29.934Z,99799.71
2022-08-20T12:32:31.613Z,99799.61
2022-08-20T12:37:33.429Z,99790.29
2022-08-20T12:42:34.626Z,99786.16
2022-08-20T12:47:39.719Z,99783.54
2022-08-20T12:52:41.903Z,99788.83
2022-08-20T12:57:47.563Z,99790.21
2022-08-20T13:02:50.115Z,99787.27
2022-08-20T13:07:52.296Z,99786.62
2022-08-20T13:12:54.181Z,99778.69
2022-08-20T13:18:00.164Z,99775.62
2022-08-20T13:23:03.500Z,99770.39
2022-08-20T13:28:05.278Z,99773.70
2022-08-20T13:33:06.407Z,99779.60
2022-08-20T13:38:07.783Z,99772.13
2022-08-20T13:43:11.885Z,99768.53
2022-08-20T13:48:15.289Z,99763.72
2022-08-20T13:53:16.872Z,99758.02
2022-08-20T13:58:18.831Z,99756.61
2022-08-20T14:03:25.295Z,99753.61
2022-08-20T14:08:27.231Z,99747.63
2022-08-20T14:13:28.441Z,99750.14
2022-08-20T14:18:30.097Z,99746.85
2022-08-20T14:23:31.177Z,99746.41
2022-08-20T14:28:38.470Z,99751.04
2022-08-20T14:33:44.013Z,99751.82
2022-08-20T14:38:45.850Z,99748.73
2022-08-20T14:43:47.016Z,99743.50
2022-08-20T14:48:51.826Z,99747.80
2022-08-20T14:53:54.606Z,99751.63
2022-08-20T14:58:55.738Z,99758.79
2022-08-20T15:03:56.960Z,99768.60
2022-08-20T15:08:58.625Z,99780.88
2022-08-20T15:13:59.720Z,99785.90
2022-08-20T15:19:00.847Z,99790.95
2022-08-20T15:24:02.563Z,99789.58
2022-08-20T15:29:03.800Z,99783.61
2022-08-20T15:34:04.893Z,99778.37
2022-08-20T15:39:05.997Z,99778.30
2022-08-20T15:44:07.213Z,99788.06
2022-08-20T15:49:11.620Z,99793.71
2022-08-20T15:54:23.711Z,99794.09
2022-08-20T16:00:08.569Z,99808.80
2022-08-20T16:05:23.072Z,99816.36
2022-08-20T16:10:43.116Z,99825.56
2022-08-20T16:15:47.543Z,99820.83
2022-08-20T16:20:53.070Z,99819.45
2022-08-20T16:26:31.903Z,99801.81
2022-08-20T16:31:41.140Z,99788.73
2022-08-20T16:37:03.470Z,99786.55
2022-08-20T16:42:09.751Z,99783.41
2022-08-20T16:47:22.016Z,99788.02
2022-08-20T16:52:23.743Z,99785.37
2022-08-20T16:57:28.332Z,99792.73
2022-08-20T17:02:29.775Z,99795.93
2022-08-20T17:07:46.030Z,99797.28
2022-08-20T17:13:14.744Z,99790.86
2022-08-20T17:18:25.685Z,99789.85
2022-08-20T17:23:27.638Z,99783.61
2022-08-20T17:28:33.249Z,99780.85
2022-08-20T17:33:38.587Z,99790.04
2022-08-20T17:38:46.578Z,99791.41
2022-08-20T17:43:57.167Z,99794.69
2022-08-20T17:49:04.757Z,99791.52
2022-08-20T17:54:27.152Z,99801.35
2022-08-20T18:00:00.184Z,99810.00
2022-08-20T18:04:56.111Z,99816.06
2022-08-20T18:10:03.712Z,99823.95
2022-08-20T18:15:25.160Z,99826.83
2022-08-20T18:20:48.026Z,99805.45
2022-08-20T18:25:56.088Z,99804.95
2022-08-20T18:30:59.969Z,99815.31
2022-08-20T18:36:19.638Z,99838.58
2022-08-20T18:41:42.792Z,99837.84
2022-08-20T18:47:05.147Z,99833.29
2022-08-20T18:52:27.114Z,99823.48
2022-08-20T18:57:41.489Z,99815.33
2022-08-20T19:03:02.033Z,99803.48
2022-08-20T19:08:05.613Z,99805.14
2022-08-20T19:13:16.329Z,99822.44
2022-08-20T19:18:29.731Z,99846.15
2022-08-20T19:23:39.433Z,99867.58
2022-08-20T19:28:46.652Z,99864.96
2022-08-20T19:33:48.194Z,99851.63
2022-08-20T19:38:57.546Z,99829.47
2022-08-20T19:44:00.440Z,99800.20
2022-08-20T19:49:17.359Z,99810.85
2022-08-20T19:54:24.671Z,99798.41
2022-08-20T19:59:25.851Z,99797.61
2022-08-20T20:04:29.832Z,99793.00
2022-08-20T20:09:31.380Z,99800.71
2022-08-20T20:14:35.745Z,99824.58
2022-08-20T20:19:58.615Z,99857.48
2022-08-20T20:25:16.804Z,99892.84
2022-08-20T20:30:28.470Z,99902.89
2022-08-20T20:35:34.678Z,99927.24
2022-08-20T20:40:50.445Z,99920.19
2022-08-20T20:46:27.931Z,99949.77
2022-08-20T20:51:33.045Z,99983.13
2022-08-20T20:56:36.998Z,99939.89
2022-08-20T21:01:49.297Z,99906.98
2022-08-20T21:06:53.944Z,99900.17
2022-08-20T21:11:55.083Z,99892.05
2022-08-20T21:16:59.711Z,99865.96
2022-08-20T21:22:00.844Z,99856.70
2022-08-20T21:27:03.166Z,99850.70
2022-08-20T21:32:04.798Z,99840.05
2022-08-20T21:37:05.894Z,99836.25
2022-08-20T21:42:29.447Z,99846.06
2022-08-20T21:47:30.927Z,99833.66
2022-08-20T21:52:32.016Z,99825.10
2022-08-20T21:57:37.125Z,99817.47
2022-08-20T22:02:38.255Z,99823.14
2022-08-20T22:07:41.477Z,99821.49
2022-08-20T22:12:42.584Z,99827.08
2022-08-20T22:17:43.694Z,99828.61
2022-08-20T22:22:46.022Z,99825.98
2022-08-20T22:27:47.319Z,99817.71
2022-08-20T22:32:52.142Z,99831.02
2022-08-20T22:37:53.727Z,99863.05
2022-08-20T22:42:54.981Z,99855.27
2022-08-20T22:47:56.275Z,99809.19
2022-08-20T22:52:58.658Z,99758.00
2022-08-20T22:58:00.124Z,99779.02
2022-08-20T23:03:03.507Z,99807.48
2022-08-20T23:08:06.845Z,99805.99
2022-08-20T23:13:08.053Z,99815.19
2022-08-20T23:18:13.645Z,99831.21
2022-08-20T23:23:14.932Z,99830.27
2022-08-20T23:28:19.239Z,99836.99
2022-08-20T23:33:20.443Z,99839.27
2022-08-20T23:38:21.630Z,99820.72
2022-08-20T23:43:22.888Z,99823.42
2022-08-20T23:48:24.280Z,99817.65
2022-08-20T23:53:25.624Z,99812.24
2022-08-20T23:58:26.965Z,99815.92
